sensor_id;sensor_type;location;lat;lon;timestamp;temperature;humidity
6556;DHT22;3311;48.32423000;14.29074500;2024-03-02T00:00:57;11.90;90.10
6556;DHT22;3311;48.32423000;14.29074500;2024-03-02T00:03:26;11.90;90.00
6556;DHT22;3311;48.32423000;14.29074500;2024-03-02T00:05:53;11.90;90.10
6556;DHT22;3311;48.32423000;14.29074500;2024-03-02T00:08:24;11.80;89.90
6556;DHT22;3311;48.32423000;14.29074500;2024-03-02T00:10:57;11.80;90.00
6556;DHT22;3311;48.32423000;14.29074500;2024-03-02T00:13:24;11.80;90.00
6556;DHT22;3311;48.32423000;14.29074500;2024-03-02T00:15:53;11.80;90.00
6556;DHT22;3311;48.32423000;14.29074500;2024-03-02T00:18:26;11.80;89.80
6556;DHT22;3311;48.32423000;14.29074500;2024-03-02T00:20:54;11.80;89.90
6556;DHT22;3311;48.32423000;14.29074500;2024-03-02T00:23:24;11.80;89.70
6556;DHT22;3311;48.32423000;14.29074500;2024-03-02T00:25:54;11.80;89.40
6556;DHT22;3311;48.32423000;14.29074500;2024-03-02T00:28:23;11.70;89.00
6556;DHT22;3311;48.32423000;14.29074500;2024-03-02T00:30:58;11.70;89.20
6556;DHT22;3311;48.32423000;14.29074500;2024-03-02T00:33:30;11.70;89.40
6556;DHT22;3311;48.32423000;14.29074500;2024-03-02T00:35:58;11.80;89.50
6556;DHT22;3311;48.32423000;14.29074500;2024-03-02T00:38:27;11.80;88.90
6556;DHT22;3311;48.32423000;14.29074500;2024-03-02T00:40:57;11.90;88.40
6556;DHT22;3311;48.32423000;14.29074500;2024-03-02T00:43:47;11.90;88.60
6556;DHT22;3311;48.32423000;14.29074500;2024-03-02T00:46:17;11.70;88.50
6556;DHT22;3311;48.32423000;14.29074500;2024-03-02T00:48:53;11.70;88.50
6556;DHT22;3311;48.32423000;14.29074500;2024-03-02T00:51:22;11.70;88.50
6556;DHT22;3311;48.32423000;14.29074500;2024-03-02T00:53:50;11.70;88.30
6556;DHT22;3311;48.32423000;14.29074500;2024-03-02T00:56:18;11.70;88.00
6556;DHT22;3311;48.32423000;14.29074500;2024-03-02T00:58:46;11.70;87.40
6556;DHT22;3311;48.32423000;14.29074500;2024-03-02T01:01:14;11.80;88.00
6556;DHT22;3311;48.32423000;14.29074500;2024-03-02T01:03:42;11.70;87.40
6556;DHT22;3311;48.32423000;14.29074500;2024-03-02T01:06:11;11.70;87.70
6556;DHT22;3311;48.32423000;14.29074500;2024-03-02T01:08:39;11.70;87.20
6556;DHT22;3311;48.32423000;14.29074500;2024-03-02T01:11:06;11.60;87.40
6556;DHT22;3311;48.32423000;14.29074500;2024-03-02T01:13:34;11.60;87.40
6556;DHT22;3311;48.32423000;14.29074500;2024-03-02T01:16:01;11.70;87.20
6556;DHT22;3311;48.32423000;14.29074500;2024-03-02T01:18:30;11.60;86.70
6556;DHT22;3311;48.32423000;14.29074500;2024-03-02T01:20:57;11.60;86.60
6556;DHT22;3311;48.32423000;14.29074500;2024-03-02T01:23:26;11.70;86.80
6556;DHT22;3311;48.32423000;14.29074500;2024-03-02T01:25:54;11.60;86.40
6556;DHT22;3311;48.32423000;14.29074500;2024-03-02T01:28:22;11.70;86.60
6556;DHT22;3311;48.32423000;14.29074500;2024-03-02T01:30:49;11.80;85.90
6556;DHT22;3311;48.32423000;14.29074500;2024-03-02T01:33:17;11.80;85.80
6556;DHT22;3311;48.32423000;14.29074500;2024-03-02T01:35:44;11.70;85.50
6556;DHT22;3311;48.32423000;14.29074500;2024-03-02T01:38:12;11.60;85.60
6556;DHT22;3311;48.32423000;14.29074500;2024-03-02T01:40:42;11.60;86.00
6556;DHT22;3311;48.32423000;14.29074500;2024-03-02T01:43:10;11.60;85.90
6556;DHT22;3311;48.32423000;14.29074500;2024-03-02T01:45:37;11.50;85.70
6556;DHT22;3311;48.32423000;14.29074500;2024-03-02T01:48:06;11.50;85.90
6556;DHT22;3311;48.32423000;14.29074500;2024-03-02T01:50:34;11.50;86.30
6556;DHT22;3311;48.32423000;14.29074500;2024-03-02T01:53:02;11.50;86.40
6556;DHT22;3311;48.32423000;14.29074500;2024-03-02T01:55:30;11.50;86.00
6556;DHT22;3311;48.32423000;14.29074500;2024-03-02T01:58:00;11.50;86.40
6556;DHT22;3311;48.32423000;14.29074500;2024-03-02T02:00:28;11.50;86.50
6556;DHT22;3311;48.32423000;14.29074500;2024-03-02T02:02:56;11.40;86.40
6556;DHT22;3311;48.32423000;14.29074500;2024-03-02T02:05:23;11.40;86.40
6556;DHT22;3311;48.32423000;14.29074500;2024-03-02T02:07:51;11.50;86.60
6556;DHT22;3311;48.32423000;14.29074500;2024-03-02T02:10:18;11.50;86.50
6556;DHT22;3311;48.32423000;14.29074500;2024-03-02T02:12:46;11.50;86.50
6556;DHT22;3311;48.32423000;14.29074500;2024-03-02T02:15:25;11.40;86.50
6556;DHT22;3311;48.32423000;14.29074500;2024-03-02T02:17:53;11.40;86.50
6556;DHT22;3311;48.32423000;14.29074500;2024-03-02T02:20:20;11.30;86.90
6556;DHT22;3311;48.32423000;14.29074500;2024-03-02T02:22:59;11.40;87.00
6556;DHT22;3311;48.32423000;14.29074500;2024-03-02T02:25:27;11.40;87.10
6556;DHT22;3311;48.32423000;14.29074500;2024-03-02T02:27:55;11.40;87.10
6556;DHT22;3311;48.32423000;14.29074500;2024-03-02T02:30:25;11.40;86.90
6556;DHT22;3311;48.32423000;14.29074500;2024-03-02T02:32:53;11.40;87.00
6556;DHT22;3311;48.32423000;14.29074500;2024-03-02T02:35:20;11.30;86.80
6556;DHT22;3311;48.32423000;14.29074500;2024-03-02T02:37:49;11.40;87.10
6556;DHT22;3311;48.32423000;14.29074500;2024-03-02T02:40:19;11.40;87.00
6556;DHT22;3311;48.32423000;14.29074500;2024-03-02T02:42:47;11.30;87.20
6556;DHT22;3311;48.32423000;14.29074500;2024-03-02T02:45:14;11.40;87.20
6556;DHT22;3311;48.32423000;14.29074500;2024-03-02T02:47:41;11.30;87.10
6556;DHT22;3311;48.32423000;14.29074500;2024-03-02T02:50:10;11.40;87.30
6556;DHT22;3311;48.32423000;14.29074500;2024-03-02T02:52:39;11.40;87.20
6556;DHT22;3311;48.32423000;14.29074500;2024-03-02T02:55:08;11.30;87.20
6556;DHT22;3311;48.32423000;14.29074500;2024-03-02T02:57:38;11.40;87.00
6556;DHT22;3311;48.32423000;14.29074500;2024-03-02T03:00:08;11.40;87.50
6556;DHT22;3311;48.32423000;14.29074500;2024-03-02T03:02:40;11.40;87.40
6556;DHT22;3311;48.32423000;14.29074500;2024-03-02T03:05:08;11.40;87.50
6556;DHT22;3311;48.32423000;14.29074500;2024-03-02T03:07:37;11.30;87.50
6556;DHT22;3311;48.32423000;14.29074500;2024-03-02T03:10:06;11.40;87.60
6556;DHT22;3311;48.32423000;14.29074500;2024-03-02T03:12:35;11.40;87.80
6556;DHT22;3311;48.32423000;14.29074500;2024-03-02T03:15:04;11.40;87.60
6556;DHT22;3311;48.32423000;14.29074500;2024-03-02T03:17:32;11.40;88.00
6556;DHT22;3311;48.32423000;14.29074500;2024-03-02T03:20:00;11.30;87.80
6556;DHT22;3311;48.32423000;14.29074500;2024-03-02T03:22:30;11.30;87.90
6556;DHT22;3311;48.32423000;14.29074500;2024-03-02T03:24:57;11.40;88.00
6556;DHT22;3311;48.32423000;14.29074500;2024-03-02T03:27:25;11.40;87.80
6556;DHT22;3311;48.32423000;14.29074500;2024-03-02T03:29:53;11.30;87.90
6556;DHT22;3311;48.32423000;14.29074500;2024-03-02T03:32:21;11.40;87.90
6556;DHT22;3311;48.32423000;14.29074500;2024-03-02T03:34:49;11.40;87.80
6556;DHT22;3311;48.32423000;14.29074500;2024-03-02T03:37:16;11.50;87.70
6556;DHT22;3311;48.32423000;14.29074500;2024-03-02T03:39:43;11.50;87.50
6556;DHT22;3311;48.32423000;14.29074500;2024-03-02T03:42:11;11.50;87.60
6556;DHT22;3311;48.32423000;14.29074500;2024-03-02T03:44:38;11.50;87.50
6556;DHT22;3311;48.32423000;14.29074500;2024-03-02T03:47:06;11.40;87.50
6556;DHT22;3311;48.32423000;14.29074500;2024-03-02T03:49:35;11.40;87.30
6556;DHT22;3311;48.32423000;14.29074500;2024-03-02T03:52:03;11.50;87.60
6556;DHT22;3311;48.32423000;14.29074500;2024-03-02T03:54:31;11.60;87.30
6556;DHT22;3311;48.32423000;14.29074500;2024-03-02T03:56:58;11.50;87.00
6556;DHT22;3311;48.32423000;14.29074500;2024-03-02T03:59:25;11.60;87.40
6556;DHT22;3311;48.32423000;14.29074500;2024-03-02T04:01:52;11.50;86.90
6556;DHT22;3311;48.32423000;14.29074500;2024-03-02T04:04:20;11.50;87.40
6556;DHT22;3311;48.32423000;14.29074500;2024-03-02T04:06:49;11.50;87.30
6556;DHT22;3311;48.32423000;14.29074500;2024-03-02T04:09:16;11.50;87.60
6556;DHT22;3311;48.32423000;14.29074500;2024-03-02T04:11:43;11.40;87.50
6556;DHT22;3311;48.32423000;14.29074500;2024-03-02T04:14:11;11.50;87.90
6556;DHT22;3311;48.32423000;14.29074500;2024-03-02T04:16:38;11.40;87.50
6556;DHT22;3311;48.32423000;14.29074500;2024-03-02T04:19:06;11.40;87.60
6556;DHT22;3311;48.32423000;14.29074500;2024-03-02T04:21:33;11.40;87.70
6556;DHT22;3311;48.32423000;14.29074500;2024-03-02T04:24:02;11.40;87.70
6556;DHT22;3311;48.32423000;14.29074500;2024-03-02T04:26:29;11.40;87.70
6556;DHT22;3311;48.32423000;14.29074500;2024-03-02T04:28:56;11.40;87.50
6556;DHT22;3311;48.32423000;14.29074500;2024-03-02T04:31:24;11.50;87.70
6556;DHT22;3311;48.32423000;14.29074500;2024-03-02T04:33:51;11.50;87.40
6556;DHT22;3311;48.32423000;14.29074500;2024-03-02T04:36:19;11.50;87.60
6556;DHT22;3311;48.32423000;14.29074500;2024-03-02T04:38:47;11.60;88.00
6556;DHT22;3311;48.32423000;14.29074500;2024-03-02T04:41:16;11.60;87.30
6556;DHT22;3311;48.32423000;14.29074500;2024-03-02T04:43:44;11.50;87.50
6556;DHT22;3311;48.32423000;14.29074500;2024-03-02T04:46:11;11.50;87.30
6556;DHT22;3311;48.32423000;14.29074500;2024-03-02T04:48:39;11.50;87.30
6556;DHT22;3311;48.32423000;14.29074500;2024-03-02T04:51:06;11.50;87.00
6556;DHT22;3311;48.32423000;14.29074500;2024-03-02T04:53:33;11.50;87.20
6556;DHT22;3311;48.32423000;14.29074500;2024-03-02T04:56:00;11.50;87.40
6556;DHT22;3311;48.32423000;14.29074500;2024-03-02T04:58:55;11.50;87.00
6556;DHT22;3311;48.32423000;14.29074500;2024-03-02T05:01:22;11.50;86.80
6556;DHT22;3311;48.32423000;14.29074500;2024-03-02T05:03:49;11.50;87.00
6556;DHT22;3311;48.32423000;14.29074500;2024-03-02T05:06:17;11.60;87.30
6556;DHT22;3311;48.32423000;14.29074500;2024-03-02T05:08:44;11.70;86.60
6556;DHT22;3311;48.32423000;14.29074500;2024-03-02T05:11:11;11.60;86.50
6556;DHT22;3311;48.32423000;14.29074500;2024-03-02T05:13:57;11.50;86.40
6556;DHT22;3311;48.32423000;14.29074500;2024-03-02T05:16:24;11.50;86.60
6556;DHT22;3311;48.32423000;14.29074500;2024-03-02T05:18:51;11.60;86.80
6556;DHT22;3311;48.32423000;14.29074500;2024-03-02T05:21:18;11.60;86.60
6556;DHT22;3311;48.32423000;14.29074500;2024-03-02T05:23:46;11.50;86.50
6556;DHT22;3311;48.32423000;14.29074500;2024-03-02T05:26:13;11.50;86.60
6556;DHT22;3311;48.32423000;14.29074500;2024-03-02T05:28:40;11.50;86.30
6556;DHT22;3311;48.32423000;14.29074500;2024-03-02T05:31:10;11.40;86.60
6556;DHT22;3311;48.32423000;14.29074500;2024-03-02T05:33:38;11.40;86.70
6556;DHT22;3311;48.32423000;14.29074500;2024-03-02T05:36:05;11.40;86.90
6556;DHT22;3311;48.32423000;14.29074500;2024-03-02T05:38:35;11.40;86.80
6556;DHT22;3311;48.32423000;14.29074500;2024-03-02T05:41:03;11.40;86.80
6556;DHT22;3311;48.32423000;14.29074500;2024-03-02T05:43:30;11.40;87.20
6556;DHT22;3311;48.32423000;14.29074500;2024-03-02T05:45:58;11.50;86.80
6556;DHT22;3311;48.32423000;14.29074500;2024-03-02T05:48:27;11.50;86.80
6556;DHT22;3311;48.32423000;14.29074500;2024-03-02T05:50:55;11.50;86.90
6556;DHT22;3311;48.32423000;14.29074500;2024-03-02T05:53:22;11.50;86.70
6556;DHT22;3311;48.32423000;14.29074500;2024-03-02T05:55:49;11.40;86.40
6556;DHT22;3311;48.32423000;14.29074500;2024-03-02T05:58:21;11.40;87.30
6556;DHT22;3311;48.32423000;14.29074500;2024-03-02T06:00:58;11.40;87.00
6556;DHT22;3311;48.32423000;14.29074500;2024-03-02T06:03:27;11.50;87.20
6556;DHT22;3311;48.32423000;14.29074500;2024-03-02T06:05:55;11.50;86.90
6556;DHT22;3311;48.32423000;14.29074500;2024-03-02T06:08:22;11.50;86.80
6556;DHT22;3311;48.32423000;14.29074500;2024-03-02T06:10:49;11.50;86.70
6556;DHT22;3311;48.32423000;14.29074500;2024-03-02T06:13:17;11.60;86.80
6556;DHT22;3311;48.32423000;14.29074500;2024-03-02T06:15:44;11.60;86.20
6556;DHT22;3311;48.32423000;14.29074500;2024-03-02T06:18:13;14.00;89.30
6556;DHT22;3311;48.32423000;14.29074500;2024-03-02T06:20:42;11.60;86.50
6556;DHT22;3311;48.32423000;14.29074500;2024-03-02T06:23:09;11.60;86.40
6556;DHT22;3311;48.32423000;14.29074500;2024-03-02T06:25:37;11.60;86.70
6556;DHT22;3311;48.32423000;14.29074500;2024-03-02T06:28:05;11.70;86.50
6556;DHT22;3311;48.32423000;14.29074500;2024-03-02T06:30:33;11.80;85.80
6556;DHT22;3311;48.32423000;14.29074500;2024-03-02T06:33:00;11.70;85.90
6556;DHT22;3311;48.32423000;14.29074500;2024-03-02T06:35:29;11.70;86.60
6556;DHT22;3311;48.32423000;14.29074500;2024-03-02T06:37:58;11.80;86.10
6556;DHT22;3311;48.32423000;14.29074500;2024-03-02T06:40:25;11.80;86.20
6556;DHT22;3311;48.32423000;14.29074500;2024-03-02T06:42:53;11.70;86.50
6556;DHT22;3311;48.32423000;14.29074500;2024-03-02T06:45:20;11.80;86.80
6556;DHT22;3311;48.32423000;14.29074500;2024-03-02T06:47:48;11.70;86.60
6556;DHT22;3311;48.32423000;14.29074500;2024-03-02T06:50:15;11.90;86.50
6556;DHT22;3311;48.32423000;14.29074500;2024-03-02T06:52:42;11.80;86.20
6556;DHT22;3311;48.32423000;14.29074500;2024-03-02T06:55:11;11.80;86.30
6556;DHT22;3311;48.32423000;14.29074500;2024-03-02T06:57:38;11.80;86.20
6556;DHT22;3311;48.32423000;14.29074500;2024-03-02T07:00:07;11.80;86.80
6556;DHT22;3311;48.32423000;14.29074500;2024-03-02T07:02:34;11.90;86.80
6556;DHT22;3311;48.32423000;14.29074500;2024-03-02T07:05:02;12.00;86.60
6556;DHT22;3311;48.32423000;14.29074500;2024-03-02T07:07:29;12.00;86.40
6556;DHT22;3311;48.32423000;14.29074500;2024-03-02T07:09:57;12.10;86.00
6556;DHT22;3311;48.32423000;14.29074500;2024-03-02T07:12:26;12.00;86.70
6556;DHT22;3311;48.32423000;14.29074500;2024-03-02T07:14:53;12.10;86.30
6556;DHT22;3311;48.32423000;14.29074500;2024-03-02T07:17:54;12.10;86.40
6556;DHT22;3311;48.32423000;14.29074500;2024-03-02T07:20:22;12.20;86.20
6556;DHT22;3311;48.32423000;14.29074500;2024-03-02T07:22:49;12.20;85.90
6556;DHT22;3311;48.32423000;14.29074500;2024-03-02T07:25:16;12.30;85.90
6556;DHT22;3311;48.32423000;14.29074500;2024-03-02T07:27:45;12.30;85.60
6556;DHT22;3311;48.32423000;14.29074500;2024-03-02T07:30:14;12.30;85.70
6556;DHT22;3311;48.32423000;14.29074500;2024-03-02T07:32:43;12.40;85.60
6556;DHT22;3311;48.32423000;14.29074500;2024-03-02T07:35:12;12.40;85.30
6556;DHT22;3311;48.32423000;14.29074500;2024-03-02T07:37:41;12.40;85.10
6556;DHT22;3311;48.32423000;14.29074500;2024-03-02T07:40:10;12.40;85.00
6556;DHT22;3311;48.32423000;14.29074500;2024-03-02T07:42:38;12.40;85.00
6556;DHT22;3311;48.32423000;14.29074500;2024-03-02T07:45:08;12.40;85.00
6556;DHT22;3311;48.32423000;14.29074500;2024-03-02T07:47:35;12.40;85.00
6556;DHT22;3311;48.32423000;14.29074500;2024-03-02T07:50:03;12.40;84.90
6556;DHT22;3311;48.32423000;14.29074500;2024-03-02T07:52:33;12.50;85.30
6556;DHT22;3311;48.32423000;14.29074500;2024-03-02T07:55:00;12.50;84.80
6556;DHT22;3311;48.32423000;14.29074500;2024-03-02T07:57:28;12.60;84.70
6556;DHT22;3311;48.32423000;14.29074500;2024-03-02T07:59:55;12.50;84.70
6556;DHT22;3311;48.32423000;14.29074500;2024-03-02T08:02:24;12.50;84.70
6556;DHT22;3311;48.32423000;14.29074500;2024-03-02T08:04:51;12.60;84.60
6556;DHT22;3311;48.32423000;14.29074500;2024-03-02T08:07:18;12.60;84.40
6556;DHT22;3311;48.32423000;14.29074500;2024-03-02T08:09:46;12.60;84.40
6556;DHT22;3311;48.32423000;14.29074500;2024-03-02T08:12:13;12.60;84.40
6556;DHT22;3311;48.32423000;14.29074500;2024-03-02T08:14:40;12.70;84.70
6556;DHT22;3311;48.32423000;14.29074500;2024-03-02T08:17:07;12.70;84.50
6556;DHT22;3311;48.32423000;14.29074500;2024-03-02T08:19:39;12.70;84.20
6556;DHT22;3311;48.32423000;14.29074500;2024-03-02T08:22:07;12.70;84.40
6556;DHT22;3311;48.32423000;14.29074500;2024-03-02T08:24:36;12.80;84.60
6556;DHT22;3311;48.32423000;14.29074500;2024-03-02T08:27:04;12.80;84.60
6556;DHT22;3311;48.32423000;14.29074500;2024-03-02T08:29:31;12.80;84.40
6556;DHT22;3311;48.32423000;14.29074500;2024-03-02T08:31:59;12.80;84.20
6556;DHT22;3311;48.32423000;14.29074500;2024-03-02T08:34:26;12.80;83.80
6556;DHT22;3311;48.32423000;14.29074500;2024-03-02T08:36:55;12.80;83.60
6556;DHT22;3311;48.32423000;14.29074500;2024-03-02T08:39:22;12.80;83.50
6556;DHT22;3311;48.32423000;14.29074500;2024-03-02T08:41:49;12.90;83.30
6556;DHT22;3311;48.32423000;14.29074500;2024-03-02T08:44:17;12.90;83.10
6556;DHT22;3311;48.32423000;14.29074500;2024-03-02T08:46:44;12.90;82.90
6556;DHT22;3311;48.32423000;14.29074500;2024-03-02T08:49:12;12.90;83.00
6556;DHT22;3311;48.32423000;14.29074500;2024-03-02T08:51:40;12.90;83.00
6556;DHT22;3311;48.32423000;14.29074500;2024-03-02T08:54:09;13.00;82.40
6556;DHT22;3311;48.32423000;14.29074500;2024-03-02T08:56:36;13.00;82.20
6556;DHT22;3311;48.32423000;14.29074500;2024-03-02T08:59:03;13.00;81.80
6556;DHT22;3311;48.32423000;14.29074500;2024-03-02T09:01:31;13.00;82.30
6556;DHT22;3311;48.32423000;14.29074500;2024-03-02T09:03:58;13.00;82.30
6556;DHT22;3311;48.32423000;14.29074500;2024-03-02T09:06:25;13.00;81.80
6556;DHT22;3311;48.32423000;14.29074500;2024-03-02T09:08:52;13.00;82.20
6556;DHT22;3311;48.32423000;14.29074500;2024-03-02T09:11:21;13.00;82.00
6556;DHT22;3311;48.32423000;14.29074500;2024-03-02T09:13:48;13.00;82.20
6556;DHT22;3311;48.32423000;14.29074500;2024-03-02T09:16:16;13.00;82.50
6556;DHT22;3311;48.32423000;14.29074500;2024-03-02T09:18:43;13.00;82.60
6556;DHT22;3311;48.32423000;14.29074500;2024-03-02T09:21:10;13.00;82.70
6556;DHT22;3311;48.32423000;14.29074500;2024-03-02T09:23:38;13.00;82.50
6556;DHT22;3311;48.32423000;14.29074500;2024-03-02T09:26:06;13.00;82.40
6556;DHT22;3311;48.32423000;14.29074500;2024-03-02T09:28:35;13.00;82.50
6556;DHT22;3311;48.32423000;14.29074500;2024-03-02T09:31:02;13.10;82.60
6556;DHT22;3311;48.32423000;14.29074500;2024-03-02T09:33:29;13.00;81.80
6556;DHT22;3311;48.32423000;14.29074500;2024-03-02T09:35:57;13.10;82.60
6556;DHT22;3311;48.32423000;14.29074500;2024-03-02T09:38:24;13.00;82.60
6556;DHT22;3311;48.32423000;14.29074500;2024-03-02T09:40:51;13.00;82.60
6556;DHT22;3311;48.32423000;14.29074500;2024-03-02T09:43:19;13.10;82.70
6556;DHT22;3311;48.32423000;14.29074500;2024-03-02T09:45:48;13.10;82.70
6556;DHT22;3311;48.32423000;14.29074500;2024-03-02T09:48:15;13.20;82.60
6556;DHT22;3311;48.32423000;14.29074500;2024-03-02T09:50:44;13.10;82.30
6556;DHT22;3311;48.32423000;14.29074500;2024-03-02T09:53:12;13.10;82.50
6556;DHT22;3311;48.32423000;14.29074500;2024-03-02T09:55:41;13.10;82.60
6556;DHT22;3311;48.32423000;14.29074500;2024-03-02T09:58:09;13.10;82.60
6556;DHT22;3311;48.32423000;14.29074500;2024-03-02T10:00:37;13.10;82.40
6556;DHT22;3311;48.32423000;14.29074500;2024-03-02T10:03:11;13.10;82.80
6556;DHT22;3311;48.32423000;14.29074500;2024-03-02T10:05:39;13.10;82.60
6556;DHT22;3311;48.32423000;14.29074500;2024-03-02T10:08:06;13.10;82.40
6556;DHT22;3311;48.32423000;14.29074500;2024-03-02T10:10:37;13.10;82.40
6556;DHT22;3311;48.32423000;14.29074500;2024-03-02T10:13:06;13.20;82.40
6556;DHT22;3311;48.32423000;14.29074500;2024-03-02T10:15:35;13.20;81.80
6556;DHT22;3311;48.32423000;14.29074500;2024-03-02T10:18:03;13.30;82.40
6556;DHT22;3311;48.32423000;14.29074500;2024-03-02T10:20:32;13.30;82.20
6556;DHT22;3311;48.32423000;14.29074500;2024-03-02T10:23:10;13.30;82.20
6556;DHT22;3311;48.32423000;14.29074500;2024-03-02T10:25:39;13.30;81.60
6556;DHT22;3311;48.32423000;14.29074500;2024-03-02T10:28:06;13.30;82.10
6556;DHT22;3311;48.32423000;14.29074500;2024-03-02T10:35:29;13.40;81.40
6556;DHT22;3311;48.32423000;14.29074500;2024-03-02T10:38:01;13.40;81.80
6556;DHT22;3311;48.32423000;14.29074500;2024-03-02T10:40:31;13.50;81.00
6556;DHT22;3311;48.32423000;14.29074500;2024-03-02T10:43:00;13.40;81.40
6556;DHT22;3311;48.32423000;14.29074500;2024-03-02T10:45:30;13.50;81.20
6556;DHT22;3311;48.32423000;14.29074500;2024-03-02T10:47:58;13.50;81.00
6556;DHT22;3311;48.32423000;14.29074500;2024-03-02T10:52:52;13.50;80.50
6556;DHT22;3311;48.32423000;14.29074500;2024-03-02T10:55:21;13.50;80.80
6556;DHT22;3311;48.32423000;14.29074500;2024-03-02T10:57:51;13.50;80.60
6556;DHT22;3311;48.32423000;14.29074500;2024-03-02T11:00:19;13.50;80.50
6556;DHT22;3311;48.32423000;14.29074500;2024-03-02T11:02:52;13.40;80.60
6556;DHT22;3311;48.32423000;14.29074500;2024-03-02T11:05:35;13.40;80.30
6556;DHT22;3311;48.32423000;14.29074500;2024-03-02T11:08:07;13.40;80.20
6556;DHT22;3311;48.32423000;14.29074500;2024-03-02T11:10:39;13.40;80.70
6556;DHT22;3311;48.32423000;14.29074500;2024-03-02T11:13:09;13.50;80.50
6556;DHT22;3311;48.32423000;14.29074500;2024-03-02T11:15:40;13.40;80.50
6556;DHT22;3311;48.32423000;14.29074500;2024-03-02T11:18:11;13.50;80.50
6556;DHT22;3311;48.32423000;14.29074500;2024-03-02T11:20:39;13.50;80.50
6556;DHT22;3311;48.32423000;14.29074500;2024-03-02T11:23:08;13.60;80.30
6556;DHT22;3311;48.32423000;14.29074500;2024-03-02T11:25:37;13.60;80.20
6556;DHT22;3311;48.32423000;14.29074500;2024-03-02T11:28:06;13.50;79.90
6556;DHT22;3311;48.32423000;14.29074500;2024-03-02T11:30:53;13.50;79.90
6556;DHT22;3311;48.32423000;14.29074500;2024-03-02T11:33:25;13.50;79.60
6556;DHT22;3311;48.32423000;14.29074500;2024-03-02T11:35:56;13.50;80.10
6556;DHT22;3311;48.32423000;14.29074500;2024-03-02T11:38:28;13.50;79.90
6556;DHT22;3311;48.32423000;14.29074500;2024-03-02T11:41:00;13.50;79.30
6556;DHT22;3311;48.32423000;14.29074500;2024-03-02T11:43:28;13.60;79.70
6556;DHT22;3311;48.32423000;14.29074500;2024-03-02T11:45:59;13.50;79.30
6556;DHT22;3311;48.32423000;14.29074500;2024-03-02T11:48:30;13.50;79.50
6556;DHT22;3311;48.32423000;14.29074500;2024-03-02T11:50:58;13.60;79.20
6556;DHT22;3311;48.32423000;14.29074500;2024-03-02T11:53:27;13.50;79.40
6556;DHT22;3311;48.32423000;14.29074500;2024-03-02T11:55:57;13.50;79.30
6556;DHT22;3311;48.32423000;14.29074500;2024-03-02T11:58:27;13.50;79.00
6556;DHT22;3311;48.32423000;14.29074500;2024-03-02T12:00:55;13.50;79.70
6556;DHT22;3311;48.32423000;14.29074500;2024-03-02T12:03:24;13.50;79.90
6556;DHT22;3311;48.32423000;14.29074500;2024-03-02T12:05:53;13.60;79.50
6556;DHT22;3311;48.32423000;14.29074500;2024-03-02T12:08:21;13.60;78.80
6556;DHT22;3311;48.32423000;14.29074500;2024-03-02T12:11:13;13.60;79.30
6556;DHT22;3311;48.32423000;14.29074500;2024-03-02T12:13:41;13.60;78.40
6556;DHT22;3311;48.32423000;14.29074500;2024-03-02T12:16:10;13.60;78.50
6556;DHT22;3311;48.32423000;14.29074500;2024-03-02T12:21:06;13.60;78.50
6556;DHT22;3311;48.32423000;14.29074500;2024-03-02T12:23:34;13.70;79.00
6556;DHT22;3311;48.32423000;14.29074500;2024-03-02T12:26:06;13.70;78.20
6556;DHT22;3311;48.32423000;14.29074500;2024-03-02T12:28:35;13.70;78.80
6556;DHT22;3311;48.32423000;14.29074500;2024-03-02T12:31:03;13.70;78.80
6556;DHT22;3311;48.32423000;14.29074500;2024-03-02T12:33:31;13.70;78.70
6556;DHT22;3311;48.32423000;14.29074500;2024-03-02T12:35:58;13.80;78.40
6556;DHT22;3311;48.32423000;14.29074500;2024-03-02T12:38:26;13.70;78.00
6556;DHT22;3311;48.32423000;14.29074500;2024-03-02T12:40:54;13.70;78.30
6556;DHT22;3311;48.32423000;14.29074500;2024-03-02T12:43:23;13.60;78.30
6556;DHT22;3311;48.32423000;14.29074500;2024-03-02T12:45:50;13.70;78.30
6556;DHT22;3311;48.32423000;14.29074500;2024-03-02T12:48:18;13.70;78.40
6556;DHT22;3311;48.32423000;14.29074500;2024-03-02T12:50:45;13.70;78.10
6556;DHT22;3311;48.32423000;14.29074500;2024-03-02T12:53:15;13.70;78.00
6556;DHT22;3311;48.32423000;14.29074500;2024-03-02T12:55:43;13.70;78.10
6556;DHT22;3311;48.32423000;14.29074500;2024-03-02T12:58:17;13.70;77.60
6556;DHT22;3311;48.32423000;14.29074500;2024-03-02T13:00:46;13.70;78.10
6556;DHT22;3311;48.32423000;14.29074500;2024-03-02T13:05:48;13.70;77.60
6556;DHT22;3311;48.32423000;14.29074500;2024-03-02T13:08:17;13.80;77.90
6556;DHT22;3311;48.32423000;14.29074500;2024-03-02T13:10:44;13.80;77.40
6556;DHT22;3311;48.32423000;14.29074500;2024-03-02T13:13:11;13.70;78.00
6556;DHT22;3311;48.32423000;14.29074500;2024-03-02T13:15:38;13.80;77.90
6556;DHT22;3311;48.32423000;14.29074500;2024-03-02T13:18:09;13.80;77.70
6556;DHT22;3311;48.32423000;14.29074500;2024-03-02T13:20:36;13.70;77.30
6556;DHT22;3311;48.32423000;14.29074500;2024-03-02T13:23:04;13.70;77.60
6556;DHT22;3311;48.32423000;14.29074500;2024-03-02T13:25:32;13.70;77.50
6556;DHT22;3311;48.32423000;14.29074500;2024-03-02T13:28:00;13.80;77.30
6556;DHT22;3311;48.32423000;14.29074500;2024-03-02T13:30:28;13.80;77.30
6556;DHT22;3311;48.32423000;14.29074500;2024-03-02T13:32:55;13.80;77.30
6556;DHT22;3311;48.32423000;14.29074500;2024-03-02T13:35:24;13.70;77.20
6556;DHT22;3311;48.32423000;14.29074500;2024-03-02T13:40:19;13.80;76.90
6556;DHT22;3311;48.32423000;14.29074500;2024-03-02T13:42:47;13.80;77.30
6556;DHT22;3311;48.32423000;14.29074500;2024-03-02T13:45:15;13.80;77.30
6556;DHT22;3311;48.32423000;14.29074500;2024-03-02T13:47:43;13.80;77.10
6556;DHT22;3311;48.32423000;14.29074500;2024-03-02T13:52:39;13.80;76.30
6556;DHT22;3311;48.32423000;14.29074500;2024-03-02T13:55:09;13.80;77.30
6556;DHT22;3311;48.32423000;14.29074500;2024-03-02T13:57:38;13.80;77.30
6556;DHT22;3311;48.32423000;14.29074500;2024-03-02T14:00:06;13.80;77.30